Česky Dansk Deutsch English Español Suomi Français Magyar Italiano Nederlands norsk Polski Português svenska Türkçe

 

Het Weer

Cervia (Italië)

06:55, 16 augusti 2016 (GMT)

NWNNE
WE
SWSSE
Home            
Cervia Forli Punta Marina Rimini Frontone Bologna / Borgo Panigale Ferrara Arezzo Firenze / Peretola Falconara Porretta Pass Perugia Monte Cimone Dova Area Control Center Venezia / Tessera Volterra Radicofani Treviso / S. Angelo Vicenza Treviso / Istrana Pisa / S. Giusto Losinj Island Verona / Villafranca

Om een weerknop op uw website of weblog te plaatsen, copieer onderstaande code en plak die in uw pagina. In het eerste vakje staat HTML-code, in het tweede vakje UBB-code.


Add to Google

Details

Wind speed:2 bf, 4 kn, 2.1 m/s, 4.6 miles/h, 7.4 km/h
Wind direction:WNW, 290°
Generella sikten:Över 10000 m, 10 km, 32800 ft, 6.2 miles
Clouds:CAVOC
Temperaturen:22°C, 72°F
Gefühlte Temperatur:23°C, 74°F
Daggpunkt:17°C, 63°F
Lufttrycket:1015 hPa, 761.3 mmHg, 29.97 inHg, 1.002 atm
Relativa fuktigheten:73.3 %
METAR:LIPC 160655Z 29004KT CAVOK 22/17 Q1015

Snelkoppelingen

Actuele weersinformatie van de hele wereld. Voeg locaties toe met het plus (+) symbool. Deze snelkoppelingen kunnen worden toegevoegd aan Google.

Lid van de Technetium groep

website free tracking
StatCounter NetStat W3C Validator

03-12-2022 10:56:55
astro.technetium.be money.technetium.be phote.technetium.be tafeltennistafel.technetium.be www.ligfiets.net